sensor_id;sensor_type;location;lat;lon;timestamp;temperature;humidity
12815;DHT22;6472;52.328;13.070;2023-02-01T00:01:30;4.30;99.90
12815;DHT22;6472;52.328;13.070;2023-02-01T00:03:58;4.30;99.90
12815;DHT22;6472;52.328;13.070;2023-02-01T00:06:26;4.20;99.90
12815;DHT22;6472;52.328;13.070;2023-02-01T00:08:55;4.20;99.90
12815;DHT22;6472;52.328;13.070;2023-02-01T00:11:24;4.20;99.90
12815;DHT22;6472;52.328;13.070;2023-02-01T00:13:52;4.30;99.90
12815;DHT22;6472;52.328;13.070;2023-02-01T00:16:23;4.40;99.90
12815;DHT22;6472;52.328;13.070;2023-02-01T00:18:56;4.40;99.90
12815;DHT22;6472;52.328;13.070;2023-02-01T00:21:25;4.40;99.90
12815;DHT22;6472;52.328;13.070;2023-02-01T00:23:53;4.40;99.90
12815;DHT22;6472;52.328;13.070;2023-02-01T00:26:26;4.40;99.90
12815;DHT22;6472;52.328;13.070;2023-02-01T00:28:55;4.50;99.90
12815;DHT22;6472;52.328;13.070;2023-02-01T00:31:25;4.50;99.90
12815;DHT22;6472;52.328;13.070;2023-02-01T00:33:55;4.60;99.90
12815;DHT22;6472;52.328;13.070;2023-02-01T00:36:23;4.60;99.90
12815;DHT22;6472;52.328;13.070;2023-02-01T00:38:51;4.70;99.90
12815;DHT22;6472;52.328;13.070;2023-02-01T00:41:20;4.60;99.90
12815;DHT22;6472;52.328;13.070;2023-02-01T00:43:50;4.70;99.90
12815;DHT22;6472;52.328;13.070;2023-02-01T00:46:19;4.70;99.90
12815;DHT22;6472;52.328;13.070;2023-02-01T00:48:50;4.80;99.90
12815;DHT22;6472;52.328;13.070;2023-02-01T00:51:19;4.90;99.90
12815;DHT22;6472;52.328;13.070;2023-02-01T00:53:48;4.80;99.90
12815;DHT22;6472;52.328;13.070;2023-02-01T00:56:16;4.60;99.90
12815;DHT22;6472;52.328;13.070;2023-02-01T00:58:45;4.50;99.90
12815;DHT22;6472;52.328;13.070;2023-02-01T01:01:15;4.40;99.90
12815;DHT22;6472;52.328;13.070;2023-02-01T01:03:46;4.40;99.90
12815;DHT22;6472;52.328;13.070;2023-02-01T01:06:17;4.40;99.90
12815;DHT22;6472;52.328;13.070;2023-02-01T01:08:45;4.30;99.90
12815;DHT22;6472;52.328;13.070;2023-02-01T01:11:15;4.40;99.90
12815;DHT22;6472;52.328;13.070;2023-02-01T01:13:45;4.40;99.90
12815;DHT22;6472;52.328;13.070;2023-02-01T01:16:14;4.30;99.90
12815;DHT22;6472;52.328;13.070;2023-02-01T01:18:42;4.40;99.90
12815;DHT22;6472;52.328;13.070;2023-02-01T01:21:12;4.40;99.90
12815;DHT22;6472;52.328;13.070;2023-02-01T01:23:43;4.30;99.90
12815;DHT22;6472;52.328;13.070;2023-02-01T01:26:14;4.30;99.90
12815;DHT22;6472;52.328;13.070;2023-02-01T01:28:43;4.40;99.90
12815;DHT22;6472;52.328;13.070;2023-02-01T01:31:12;4.40;99.90
12815;DHT22;6472;52.328;13.070;2023-02-01T01:33:41;4.40;99.90
12815;DHT22;6472;52.328;13.070;2023-02-01T01:36:11;4.40;99.90
12815;DHT22;6472;52.328;13.070;2023-02-01T01:38:41;4.40;99.90
12815;DHT22;6472;52.328;13.070;2023-02-01T01:41:14;4.40;99.90
12815;DHT22;6472;52.328;13.070;2023-02-01T01:43:52;4.40;99.90
12815;DHT22;6472;52.328;13.070;2023-02-01T01:46:22;4.30;99.90
12815;DHT22;6472;52.328;13.070;2023-02-01T01:48:55;4.30;99.90
12815;DHT22;6472;52.328;13.070;2023-02-01T01:51:26;4.30;99.90
12815;DHT22;6472;52.328;13.070;2023-02-01T01:54:00;4.30;99.90
12815;DHT22;6472;52.328;13.070;2023-02-01T01:56:32;4.20;99.90
12815;DHT22;6472;52.328;13.070;2023-02-01T01:59:03;4.20;99.90
12815;DHT22;6472;52.328;13.070;2023-02-01T02:01:32;4.20;99.90
12815;DHT22;6472;52.328;13.070;2023-02-01T02:04:01;4.30;99.90
12815;DHT22;6472;52.328;13.070;2023-02-01T02:06:38;4.40;99.90
12815;DHT22;6472;52.328;13.070;2023-02-01T02:09:08;4.40;99.90
12815;DHT22;6472;52.328;13.070;2023-02-01T02:11:37;4.30;99.90
12815;DHT22;6472;52.328;13.070;2023-02-01T02:14:09;4.30;99.90
12815;DHT22;6472;52.328;13.070;2023-02-01T02:16:52;4.30;99.90
12815;DHT22;6472;52.328;13.070;2023-02-01T02:19:46;4.30;99.90
12815;DHT22;6472;52.328;13.070;2023-02-01T02:22:36;4.20;99.90
12815;DHT22;6472;52.328;13.070;2023-02-01T02:28:12;4.20;99.90
12815;DHT22;6472;52.328;13.070;2023-02-01T02:30:58;4.30;99.90
12815;DHT22;6472;52.328;13.070;2023-02-01T02:33:55;4.30;99.90
12815;DHT22;6472;52.328;13.070;2023-02-01T02:36:37;4.30;99.90
12815;DHT22;6472;52.328;13.070;2023-02-01T02:39:10;4.30;99.90
12815;DHT22;6472;52.328;13.070;2023-02-01T02:41:49;4.30;99.90
12815;DHT22;6472;52.328;13.070;2023-02-01T02:44:47;4.40;99.90
12815;DHT22;6472;52.328;13.070;2023-02-01T02:47:38;4.40;99.90
12815;DHT22;6472;52.328;13.070;2023-02-01T02:50:17;4.40;99.90
12815;DHT22;6472;52.328;13.070;2023-02-01T02:53:09;4.50;99.90
12815;DHT22;6472;52.328;13.070;2023-02-01T02:55:56;4.50;99.90
12815;DHT22;6472;52.328;13.070;2023-02-01T02:58:43;4.50;99.90
12815;DHT22;6472;52.328;13.070;2023-02-01T03:01:30;4.40;99.90
12815;DHT22;6472;52.328;13.070;2023-02-01T03:04:16;4.40;99.90
12815;DHT22;6472;52.328;13.070;2023-02-01T03:06:46;4.40;99.90
12815;DHT22;6472;52.328;13.070;2023-02-01T03:09:20;4.40;99.90
12815;DHT22;6472;52.328;13.070;2023-02-01T03:11:54;4.40;99.90
12815;DHT22;6472;52.328;13.070;2023-02-01T03:14:44;4.60;99.90
12815;DHT22;6472;52.328;13.070;2023-02-01T03:17:18;4.50;99.90
12815;DHT22;6472;52.328;13.070;2023-02-01T03:19:49;4.50;99.90
12815;DHT22;6472;52.328;13.070;2023-02-01T03:22:22;4.60;99.90
12815;DHT22;6472;52.328;13.070;2023-02-01T03:24:53;4.50;99.90
12815;DHT22;6472;52.328;13.070;2023-02-01T03:27:24;4.50;99.90
12815;DHT22;6472;52.328;13.070;2023-02-01T03:29:59;4.50;99.90
12815;DHT22;6472;52.328;13.070;2023-02-01T03:32:29;4.50;99.90
12815;DHT22;6472;52.328;13.070;2023-02-01T03:35:18;4.40;99.90
12815;DHT22;6472;52.328;13.070;2023-02-01T03:37:50;4.50;99.90
12815;DHT22;6472;52.328;13.070;2023-02-01T03:40:20;4.50;99.90
12815;DHT22;6472;52.328;13.070;2023-02-01T03:42:51;4.50;99.90
12815;DHT22;6472;52.328;13.070;2023-02-01T03:45:26;4.50;99.90
12815;DHT22;6472;52.328;13.070;2023-02-01T03:47:57;4.50;99.90
12815;DHT22;6472;52.328;13.070;2023-02-01T03:50:27;4.60;99.90
12815;DHT22;6472;52.328;13.070;2023-02-01T03:53:01;4.50;99.90
12815;DHT22;6472;52.328;13.070;2023-02-01T03:55:30;4.50;99.90
12815;DHT22;6472;52.328;13.070;2023-02-01T03:58:04;4.60;99.90
12815;DHT22;6472;52.328;13.070;2023-02-01T04:00:34;4.60;99.90
12815;DHT22;6472;52.328;13.070;2023-02-01T04:03:02;4.70;99.90
12815;DHT22;6472;52.328;13.070;2023-02-01T04:05:31;4.70;99.90
12815;DHT22;6472;52.328;13.070;2023-02-01T04:08:00;4.70;99.90
12815;DHT22;6472;52.328;13.070;2023-02-01T04:10:28;4.70;99.90
12815;DHT22;6472;52.328;13.070;2023-02-01T04:12:57;4.80;99.90
12815;DHT22;6472;52.328;13.070;2023-02-01T04:15:25;4.80;99.90
12815;DHT22;6472;52.328;13.070;2023-02-01T04:17:53;4.80;99.90
12815;DHT22;6472;52.328;13.070;2023-02-01T04:20:21;4.80;99.90
12815;DHT22;6472;52.328;13.070;2023-02-01T04:22:49;4.80;99.90
12815;DHT22;6472;52.328;13.070;2023-02-01T04:25:19;4.90;99.90
12815;DHT22;6472;52.328;13.070;2023-02-01T04:27:47;4.90;99.90
12815;DHT22;6472;52.328;13.070;2023-02-01T04:30:15;4.80;99.90
12815;DHT22;6472;52.328;13.070;2023-02-01T04:32:43;4.80;99.90
12815;DHT22;6472;52.328;13.070;2023-02-01T04:35:11;4.80;99.90
12815;DHT22;6472;52.328;13.070;2023-02-01T04:37:39;4.70;99.90
12815;DHT22;6472;52.328;13.070;2023-02-01T04:40:09;4.80;99.90
12815;DHT22;6472;52.328;13.070;2023-02-01T04:42:38;4.90;99.90
12815;DHT22;6472;52.328;13.070;2023-02-01T04:45:07;4.90;99.90
12815;DHT22;6472;52.328;13.070;2023-02-01T04:47:36;4.90;99.90
12815;DHT22;6472;52.328;13.070;2023-02-01T04:50:04;4.90;99.90
12815;DHT22;6472;52.328;13.070;2023-02-01T04:52:34;5.00;99.90
12815;DHT22;6472;52.328;13.070;2023-02-01T04:55:03;5.00;99.90
12815;DHT22;6472;52.328;13.070;2023-02-01T04:57:31;5.00;99.90
12815;DHT22;6472;52.328;13.070;2023-02-01T05:00:01;5.00;99.90
12815;DHT22;6472;52.328;13.070;2023-02-01T05:02:29;5.00;99.90
12815;DHT22;6472;52.328;13.070;2023-02-01T05:04:58;5.00;99.90
12815;DHT22;6472;52.328;13.070;2023-02-01T05:07:27;5.00;99.90
12815;DHT22;6472;52.328;13.070;2023-02-01T05:09:55;5.00;99.90
12815;DHT22;6472;52.328;13.070;2023-02-01T05:12:23;5.00;99.90
12815;DHT22;6472;52.328;13.070;2023-02-01T05:15:10;5.00;99.90
12815;DHT22;6472;52.328;13.070;2023-02-01T05:17:38;5.00;99.90
12815;DHT22;6472;52.328;13.070;2023-02-01T05:20:08;5.00;99.90
12815;DHT22;6472;52.328;13.070;2023-02-01T05:22:36;5.00;99.90
12815;DHT22;6472;52.328;13.070;2023-02-01T05:25:04;5.00;99.90
12815;DHT22;6472;52.328;13.070;2023-02-01T05:27:34;4.90;99.90
12815;DHT22;6472;52.328;13.070;2023-02-01T05:30:03;4.90;99.90
12815;DHT22;6472;52.328;13.070;2023-02-01T05:32:33;5.00;99.90
12815;DHT22;6472;52.328;13.070;2023-02-01T05:35:01;4.90;99.90
12815;DHT22;6472;52.328;13.070;2023-02-01T05:37:29;5.00;99.90
12815;DHT22;6472;52.328;13.070;2023-02-01T05:39:57;5.00;99.90
12815;DHT22;6472;52.328;13.070;2023-02-01T05:42:25;5.00;99.90
12815;DHT22;6472;52.328;13.070;2023-02-01T05:44:53;5.00;99.90
12815;DHT22;6472;52.328;13.070;2023-02-01T05:47:21;5.10;99.90
12815;DHT22;6472;52.328;13.070;2023-02-01T05:49:50;5.20;99.90
12815;DHT22;6472;52.328;13.070;2023-02-01T05:52:18;5.20;99.90
12815;DHT22;6472;52.328;13.070;2023-02-01T05:54:46;5.10;99.90
12815;DHT22;6472;52.328;13.070;2023-02-01T05:57:15;5.00;99.90
12815;DHT22;6472;52.328;13.070;2023-02-01T05:59:43;5.00;99.90
12815;DHT22;6472;52.328;13.070;2023-02-01T06:02:12;5.00;99.90
12815;DHT22;6472;52.328;13.070;2023-02-01T06:04:40;4.90;99.90
12815;DHT22;6472;52.328;13.070;2023-02-01T06:07:12;5.00;99.90
12815;DHT22;6472;52.328;13.070;2023-02-01T06:09:41;5.00;99.90
12815;DHT22;6472;52.328;13.070;2023-02-01T06:12:09;5.10;99.90
12815;DHT22;6472;52.328;13.070;2023-02-01T06:14:38;5.10;99.90
12815;DHT22;6472;52.328;13.070;2023-02-01T06:17:07;5.10;99.90
12815;DHT22;6472;52.328;13.070;2023-02-01T06:19:35;5.00;99.90
12815;DHT22;6472;52.328;13.070;2023-02-01T06:22:03;5.00;99.90
12815;DHT22;6472;52.328;13.070;2023-02-01T06:24:34;5.00;99.90
12815;DHT22;6472;52.328;13.070;2023-02-01T06:27:03;4.90;99.90
12815;DHT22;6472;52.328;13.070;2023-02-01T06:29:31;5.00;99.90
12815;DHT22;6472;52.328;13.070;2023-02-01T06:31:59;5.00;99.90
12815;DHT22;6472;52.328;13.070;2023-02-01T06:34:27;5.00;99.90
12815;DHT22;6472;52.328;13.070;2023-02-01T06:36:55;5.00;99.90
12815;DHT22;6472;52.328;13.070;2023-02-01T06:39:23;4.90;99.90
12815;DHT22;6472;52.328;13.070;2023-02-01T06:41:53;5.00;99.90
12815;DHT22;6472;52.328;13.070;2023-02-01T06:44:21;5.00;99.90
12815;DHT22;6472;52.328;13.070;2023-02-01T06:46:49;5.00;99.90
12815;DHT22;6472;52.328;13.070;2023-02-01T06:49:17;5.00;99.90
12815;DHT22;6472;52.328;13.070;2023-02-01T06:51:46;5.10;99.90
12815;DHT22;6472;52.328;13.070;2023-02-01T06:54:17;5.10;99.90
12815;DHT22;6472;52.328;13.070;2023-02-01T06:56:48;5.10;99.90
12815;DHT22;6472;52.328;13.070;2023-02-01T06:59:17;5.00;99.90
12815;DHT22;6472;52.328;13.070;2023-02-01T07:01:45;5.00;99.90
12815;DHT22;6472;52.328;13.070;2023-02-01T07:04:14;5.10;99.90
12815;DHT22;6472;52.328;13.070;2023-02-01T07:06:45;5.00;99.90
12815;DHT22;6472;52.328;13.070;2023-02-01T07:09:13;5.10;99.90
12815;DHT22;6472;52.328;13.070;2023-02-01T07:11:41;5.00;99.90
12815;DHT22;6472;52.328;13.070;2023-02-01T07:14:11;5.10;99.90
12815;DHT22;6472;52.328;13.070;2023-02-01T07:16:40;5.10;99.90
12815;DHT22;6472;52.328;13.070;2023-02-01T07:19:08;5.10;99.90
12815;DHT22;6472;52.328;13.070;2023-02-01T07:21:36;5.00;99.90
12815;DHT22;6472;52.328;13.070;2023-02-01T07:24:05;5.10;99.90
12815;DHT22;6472;52.328;13.070;2023-02-01T07:26:33;5.20;99.90
12815;DHT22;6472;52.328;13.070;2023-02-01T07:29:01;5.20;99.90
12815;DHT22;6472;52.328;13.070;2023-02-01T07:31:29;5.20;99.90
12815;DHT22;6472;52.328;13.070;2023-02-01T07:33:59;5.10;99.90
12815;DHT22;6472;52.328;13.070;2023-02-01T07:36:29;5.10;99.90
12815;DHT22;6472;52.328;13.070;2023-02-01T07:38:57;5.00;99.90
12815;DHT22;6472;52.328;13.070;2023-02-01T07:41:26;4.90;99.90
12815;DHT22;6472;52.328;13.070;2023-02-01T07:43:54;4.80;99.90
12815;DHT22;6472;52.328;13.070;2023-02-01T07:46:23;4.80;99.90
12815;DHT22;6472;52.328;13.070;2023-02-01T07:48:52;4.70;99.90
12815;DHT22;6472;52.328;13.070;2023-02-01T07:51:21;4.70;99.90
12815;DHT22;6472;52.328;13.070;2023-02-01T07:53:49;4.70;99.90
12815;DHT22;6472;52.328;13.070;2023-02-01T07:56:19;4.60;99.90
12815;DHT22;6472;52.328;13.070;2023-02-01T07:58:55;4.50;99.90
12815;DHT22;6472;52.328;13.070;2023-02-01T08:01:29;4.40;99.90
12815;DHT22;6472;52.328;13.070;2023-02-01T08:04:05;4.30;99.90
12815;DHT22;6472;52.328;13.070;2023-02-01T08:06:37;4.20;99.90
12815;DHT22;6472;52.328;13.070;2023-02-01T08:09:06;4.20;99.90
12815;DHT22;6472;52.328;13.070;2023-02-01T08:11:35;4.20;99.90
12815;DHT22;6472;52.328;13.070;2023-02-01T08:14:04;4.30;99.90
12815;DHT22;6472;52.328;13.070;2023-02-01T08:16:34;4.30;99.90
12815;DHT22;6472;52.328;13.070;2023-02-01T08:19:04;4.20;99.90
12815;DHT22;6472;52.328;13.070;2023-02-01T08:21:32;4.20;99.90
12815;DHT22;6472;52.328;13.070;2023-02-01T08:24:06;4.20;99.90
12815;DHT22;6472;52.328;13.070;2023-02-01T08:26:36;4.20;99.90
12815;DHT22;6472;52.328;13.070;2023-02-01T08:29:05;4.20;99.90
12815;DHT22;6472;52.328;13.070;2023-02-01T08:31:34;4.30;99.90
12815;DHT22;6472;52.328;13.070;2023-02-01T08:34:02;4.30;99.90
12815;DHT22;6472;52.328;13.070;2023-02-01T08:36:32;4.30;99.90
12815;DHT22;6472;52.328;13.070;2023-02-01T08:39:00;4.30;99.90
12815;DHT22;6472;52.328;13.070;2023-02-01T08:41:33;4.30;99.90
12815;DHT22;6472;52.328;13.070;2023-02-01T08:44:02;4.20;99.90
12815;DHT22;6472;52.328;13.070;2023-02-01T08:46:30;4.20;99.90
12815;DHT22;6472;52.328;13.070;2023-02-01T08:48:59;4.20;99.90
12815;DHT22;6472;52.328;13.070;2023-02-01T08:51:27;4.10;99.90
12815;DHT22;6472;52.328;13.070;2023-02-01T08:53:55;4.10;99.90
12815;DHT22;6472;52.328;13.070;2023-02-01T08:56:23;4.10;99.90
12815;DHT22;6472;52.328;13.070;2023-02-01T08:58:53;4.10;99.90
12815;DHT22;6472;52.328;13.070;2023-02-01T09:01:21;4.10;99.90
12815;DHT22;6472;52.328;13.070;2023-02-01T09:03:50;4.20;99.90
12815;DHT22;6472;52.328;13.070;2023-02-01T09:06:18;4.30;99.90
12815;DHT22;6472;52.328;13.070;2023-02-01T09:08:46;4.20;99.90
12815;DHT22;6472;52.328;13.070;2023-02-01T09:11:17;4.20;99.90
12815;DHT22;6472;52.328;13.070;2023-02-01T09:13:48;4.20;99.90
12815;DHT22;6472;52.328;13.070;2023-02-01T09:16:17;4.20;99.90
12815;DHT22;6472;52.328;13.070;2023-02-01T09:18:46;4.20;99.90
12815;DHT22;6472;52.328;13.070;2023-02-01T09:21:33;4.30;99.90
12815;DHT22;6472;52.328;13.070;2023-02-01T09:24:02;4.30;99.90
12815;DHT22;6472;52.328;13.070;2023-02-01T09:26:30;4.20;99.90
12815;DHT22;6472;52.328;13.070;2023-02-01T09:29:00;4.20;99.90
12815;DHT22;6472;52.328;13.070;2023-02-01T09:31:29;4.20;99.90
12815;DHT22;6472;52.328;13.070;2023-02-01T09:33:58;4.20;99.90
12815;DHT22;6472;52.328;13.070;2023-02-01T09:36:26;4.20;99.90
12815;DHT22;6472;52.328;13.070;2023-02-01T09:38:57;4.20;99.90
12815;DHT22;6472;52.328;13.070;2023-02-01T09:41:37;4.20;99.90
12815;DHT22;6472;52.328;13.070;2023-02-01T09:44:17;4.20;99.90
12815;DHT22;6472;52.328;13.070;2023-02-01T09:46:53;4.20;99.90
12815;DHT22;6472;52.328;13.070;2023-02-01T09:49:27;4.20;99.90
12815;DHT22;6472;52.328;13.070;2023-02-01T09:51:56;4.20;99.90
12815;DHT22;6472;52.328;13.070;2023-02-01T09:54:26;4.20;99.90
12815;DHT22;6472;52.328;13.070;2023-02-01T09:57:00;4.20;99.90
12815;DHT22;6472;52.328;13.070;2023-02-01T09:59:34;4.20;99.90
12815;DHT22;6472;52.328;13.070;2023-02-01T10:02:12;4.10;99.90
12815;DHT22;6472;52.328;13.070;2023-02-01T10:04:41;4.30;99.90
12815;DHT22;6472;52.328;13.070;2023-02-01T10:07:18;4.30;99.90
12815;DHT22;6472;52.328;13.070;2023-02-01T10:09:55;4.40;99.90
12815;DHT22;6472;52.328;13.070;2023-02-01T10:15:47;4.50;99.90
12815;DHT22;6472;52.328;13.070;2023-02-01T10:18:37;4.60;99.90
12815;DHT22;6472;52.328;13.070;2023-02-01T10:21:17;4.80;99.90
12815;DHT22;6472;52.328;13.070;2023-02-01T10:26:53;5.00;99.90
12815;DHT22;6472;52.328;13.070;2023-02-01T10:29:27;5.00;99.90
12815;DHT22;6472;52.328;13.070;2023-02-01T10:32:01;5.00;99.90
12815;DHT22;6472;52.328;13.070;2023-02-01T10:34:33;5.00;99.90
12815;DHT22;6472;52.328;13.070;2023-02-01T10:37:15;5.00;99.90
12815;DHT22;6472;52.328;13.070;2023-02-01T10:39:46;5.10;99.90
12815;DHT22;6472;52.328;13.070;2023-02-01T10:42:17;5.20;99.90
12815;DHT22;6472;52.328;13.070;2023-02-01T10:44:46;5.40;99.90
12815;DHT22;6472;52.328;13.070;2023-02-01T10:47:15;5.60;99.90
12815;DHT22;6472;52.328;13.070;2023-02-01T10:49:52;5.70;99.90
12815;DHT22;6472;52.328;13.070;2023-02-01T10:52:33;5.80;99.90
12815;DHT22;6472;52.328;13.070;2023-02-01T10:55:28;5.90;99.90
12815;DHT22;6472;52.328;13.070;2023-02-01T10:57:57;5.90;99.90
12815;DHT22;6472;52.328;13.070;2023-02-01T11:00:27;6.00;99.90
12815;DHT22;6472;52.328;13.070;2023-02-01T11:02:55;6.20;99.90
12815;DHT22;6472;52.328;13.070;2023-02-01T11:05:25;6.30;99.90
12815;DHT22;6472;52.328;13.070;2023-02-01T11:07:54;6.40;99.90
12815;DHT22;6472;52.328;13.070;2023-02-01T11:10:37;6.50;99.90
12815;DHT22;6472;52.328;13.070;2023-02-01T11:13:11;6.50;99.90
12815;DHT22;6472;52.328;13.070;2023-02-01T11:15:43;6.50;99.90
12815;DHT22;6472;52.328;13.070;2023-02-01T11:18:17;6.50;99.90
12815;DHT22;6472;52.328;13.070;2023-02-01T11:20:49;6.50;99.90
12815;DHT22;6472;52.328;13.070;2023-02-01T11:23:21;6.50;99.90
12815;DHT22;6472;52.328;13.070;2023-02-01T11:25:53;6.50;99.90
12815;DHT22;6472;52.328;13.070;2023-02-01T11:28:24;6.50;99.90
12815;DHT22;6472;52.328;13.070;2023-02-01T11:30:55;6.40;99.90
12815;DHT22;6472;52.328;13.070;2023-02-01T11:33:27;6.50;99.90
12815;DHT22;6472;52.328;13.070;2023-02-01T11:36:00;6.50;99.90
12815;DHT22;6472;52.328;13.070;2023-02-01T11:38:34;6.50;99.90
12815;DHT22;6472;52.328;13.070;2023-02-01T11:41:13;6.50;99.90
12815;DHT22;6472;52.328;13.070;2023-02-01T11:43:53;6.50;99.90
12815;DHT22;6472;52.328;13.070;2023-02-01T11:46:24;6.50;99.90
12815;DHT22;6472;52.328;13.070;2023-02-01T11:48:56;6.50;99.90
12815;DHT22;6472;52.328;13.070;2023-02-01T11:51:40;6.60;99.90
12815;DHT22;6472;52.328;13.070;2023-02-01T11:54:23;6.70;99.90
12815;DHT22;6472;52.328;13.070;2023-02-01T11:57:07;6.70;99.90
12815;DHT22;6472;52.328;13.070;2023-02-01T11:59:56;6.80;99.90
12815;DHT22;6472;52.328;13.070;2023-02-01T12:02:51;6.80;99.90
12815;DHT22;6472;52.328;13.070;2023-02-01T12:05:32;6.90;99.90
12815;DHT22;6472;52.328;13.070;2023-02-01T12:11:20;7.00;99.90
12815;DHT22;6472;52.328;13.070;2023-02-01T12:14:02;7.10;99.90
12815;DHT22;6472;52.328;13.070;2023-02-01T12:16:43;7.00;99.90
12815;DHT22;6472;52.328;13.070;2023-02-01T12:19:35;7.00;99.90
12815;DHT22;6472;52.328;13.070;2023-02-01T12:22:18;6.90;99.90
12815;DHT22;6472;52.328;13.070;2023-02-01T12:25:14;7.00;99.90
12815;DHT22;6472;52.328;13.070;2023-02-01T12:27:56;7.00;99.90
12815;DHT22;6472;52.328;13.070;2023-02-01T12:33:30;7.00;99.90
12815;DHT22;6472;52.328;13.070;2023-02-01T12:36:10;7.00;99.90
12815;DHT22;6472;52.328;13.070;2023-02-01T12:38:48;7.00;99.90
12815;DHT22;6472;52.328;13.070;2023-02-01T12:41:44;7.00;99.90
12815;DHT22;6472;52.328;13.070;2023-02-01T12:44:25;6.90;99.90
12815;DHT22;6472;52.328;13.070;2023-02-01T12:46:57;6.80;99.90
12815;DHT22;6472;52.328;13.070;2023-02-01T12:49:34;6.70;99.90
12815;DHT22;6472;52.328;13.070;2023-02-01T12:52:10;6.60;99.90
12815;DHT22;6472;52.328;13.070;2023-02-01T12:54:43;6.60;99.90
12815;DHT22;6472;52.328;13.070;2023-02-01T12:57:18;6.50;99.90
12815;DHT22;6472;52.328;13.070;2023-02-01T12:59:54;6.50;99.90
12815;DHT22;6472;52.328;13.070;2023-02-01T13:02:30;6.40;99.90
12815;DHT22;6472;52.328;13.070;2023-02-01T13:05:11;6.40;99.90
12815;DHT22;6472;52.328;13.070;2023-02-01T13:07:47;6.50;99.90
12815;DHT22;6472;52.328;13.070;2023-02-01T13:10:22;6.50;99.90
12815;DHT22;6472;52.328;13.070;2023-02-01T13:12:56;6.50;99.90
12815;DHT22;6472;52.328;13.070;2023-02-01T13:15:30;6.50;99.90
12815;DHT22;6472;52.328;13.070;2023-02-01T13:18:01;6.40;99.90
12815;DHT22;6472;52.328;13.070;2023-02-01T13:20:34;6.40;99.90
12815;DHT22;6472;52.328;13.070;2023-02-01T13:23:05;6.60;99.90
12815;DHT22;6472;52.328;13.070;2023-02-01T13:25:40;6.60;99.90
12815;DHT22;6472;52.328;13.070;2023-02-01T13:28:16;6.70;99.90
12815;DHT22;6472;52.328;13.070;2023-02-01T13:30:58;6.70;99.90
12815;DHT22;6472;52.328;13.070;2023-02-01T13:33:42;6.80;99.90
12815;DHT22;6472;52.328;13.070;2023-02-01T13:36:51;6.80;99.90
12815;DHT22;6472;52.328;13.070;2023-02-01T13:39:43;6.80;99.90
12815;DHT22;6472;52.328;13.070;2023-02-01T13:42:18;6.80;99.90
12815;DHT22;6472;52.328;13.070;2023-02-01T13:44:51;6.80;99.90
12815;DHT22;6472;52.328;13.070;2023-02-01T13:47:25;6.80;99.90
12815;DHT22;6472;52.328;13.070;2023-02-01T13:49:55;6.80;99.90
12815;DHT22;6472;52.328;13.070;2023-02-01T13:52:28;6.80;99.90
12815;DHT22;6472;52.328;13.070;2023-02-01T13:55:28;6.70;99.90
12815;DHT22;6472;52.328;13.070;2023-02-01T13:58:04;6.70;99.90
12815;DHT22;6472;52.328;13.070;2023-02-01T14:00:36;6.70;99.90
12815;DHT22;6472;52.328;13.070;2023-02-01T14:03:18;6.50;99.90
12815;DHT22;6472;52.328;13.070;2023-02-01T14:09:13;6.50;99.90
12815;DHT22;6472;52.328;13.070;2023-02-01T14:11:48;6.60;99.90
12815;DHT22;6472;52.328;13.070;2023-02-01T14:14:50;6.50;99.90
12815;DHT22;6472;52.328;13.070;2023-02-01T14:17:40;6.60;99.90
12815;DHT22;6472;52.328;13.070;2023-02-01T14:20:43;6.50;99.90
12815;DHT22;6472;52.328;13.070;2023-02-01T14:23:39;6.50;99.90
12815;DHT22;6472;52.328;13.070;2023-02-01T14:26:17;6.40;99.90
12815;DHT22;6472;52.328;13.070;2023-02-01T14:28:51;6.50;99.90
12815;DHT22;6472;52.328;13.070;2023-02-01T14:31:40;6.40;99.90
12815;DHT22;6472;52.328;13.070;2023-02-01T14:34:18;6.40;99.90
12815;DHT22;6472;52.328;13.070;2023-02-01T14:36:51;6.40;99.90
12815;DHT22;6472;52.328;13.070;2023-02-01T14:39:46;6.40;99.90
12815;DHT22;6472;52.328;13.070;2023-02-01T14:42:25;6.40;99.90
12815;DHT22;6472;52.328;13.070;2023-02-01T14:44:55;6.40;99.90
12815;DHT22;6472;52.328;13.070;2023-02-01T14:47:28;6.40;99.90
12815;DHT22;6472;52.328;13.070;2023-02-01T14:50:31;6.40;99.90
12815;DHT22;6472;52.328;13.070;2023-02-01T14:53:21;6.30;99.90
12815;DHT22;6472;52.328;13.070;2023-02-01T14:55:53;6.10;99.90
12815;DHT22;6472;52.328;13.070;2023-02-01T14:58:35;6.00;99.90
12815;DHT22;6472;52.328;13.070;2023-02-01T15:01:05;5.80;99.90
12815;DHT22;6472;52.328;13.070;2023-02-01T15:03:44;5.50;99.90
12815;DHT22;6472;52.328;13.070;2023-02-01T15:06:23;5.40;99.90
12815;DHT22;6472;52.328;13.070;2023-02-01T15:08:54;5.30;99.90
12815;DHT22;6472;52.328;13.070;2023-02-01T15:11:25;5.20;99.90
12815;DHT22;6472;52.328;13.070;2023-02-01T15:13:54;4.90;99.90
12815;DHT22;6472;52.328;13.070;2023-02-01T15:16:24;5.00;99.90
12815;DHT22;6472;52.328;13.070;2023-02-01T15:19:10;4.90;99.90
12815;DHT22;6472;52.328;13.070;2023-02-01T15:21:45;4.80;99.90
12815;DHT22;6472;52.328;13.070;2023-02-01T15:24:18;4.80;99.90
12815;DHT22;6472;52.328;13.070;2023-02-01T15:26:47;4.70;99.90
12815;DHT22;6472;52.328;13.070;2023-02-01T15:29:15;4.70;99.90
12815;DHT22;6472;52.328;13.070;2023-02-01T15:31:44;4.60;99.90
12815;DHT22;6472;52.328;13.070;2023-02-01T15:34:17;4.60;99.90
12815;DHT22;6472;52.328;13.070;2023-02-01T15:36:47;4.50;99.90
12815;DHT22;6472;52.328;13.070;2023-02-01T15:39:29;4.50;99.90
12815;DHT22;6472;52.328;13.070;2023-02-01T15:42:01;4.40;99.90
12815;DHT22;6472;52.328;13.070;2023-02-01T15:44:39;4.20;99.90
12815;DHT22;6472;52.328;13.070;2023-02-01T15:47:13;4.40;99.90
12815;DHT22;6472;52.328;13.070;2023-02-01T15:49:44;4.40;99.90
12815;DHT22;6472;52.328;13.070;2023-02-01T15:52:30;4.40;99.90
12815;DHT22;6472;52.328;13.070;2023-02-01T15:55:01;4.50;99.90
12815;DHT22;6472;52.328;13.070;2023-02-01T15:57:33;4.60;99.90
12815;DHT22;6472;52.328;13.070;2023-02-01T16:00:04;4.60;99.90
12815;DHT22;6472;52.328;13.070;2023-02-01T16:02:35;4.60;99.90
12815;DHT22;6472;52.328;13.070;2023-02-01T16:05:21;4.50;99.90
12815;DHT22;6472;52.328;13.070;2023-02-01T16:08:01;4.60;99.90
12815;DHT22;6472;52.328;13.070;2023-02-01T16:10:31;4.60;99.90
12815;DHT22;6472;52.328;13.070;2023-02-01T16:13:13;4.50;99.90
12815;DHT22;6472;52.328;13.070;2023-02-01T16:15:42;4.30;99.90
12815;DHT22;6472;52.328;13.070;2023-02-01T16:18:13;4.00;99.90
12815;DHT22;6472;52.328;13.070;2023-02-01T16:20:45;3.60;99.90
12815;DHT22;6472;52.328;13.070;2023-02-01T16:23:16;3.30;99.90
12815;DHT22;6472;52.328;13.070;2023-02-01T16:25:46;3.20;99.90
12815;DHT22;6472;52.328;13.070;2023-02-01T16:28:14;3.20;99.90
12815;DHT22;6472;52.328;13.070;2023-02-01T16:30:42;2.90;99.90
12815;DHT22;6472;52.328;13.070;2023-02-01T16:33:16;2.80;99.90
12815;DHT22;6472;52.328;13.070;2023-02-01T16:35:47;2.80;99.90
12815;DHT22;6472;52.328;13.070;2023-02-01T16:38:19;2.80;99.90
12815;DHT22;6472;52.328;13.070;2023-02-01T16:40:51;2.70;99.90
12815;DHT22;6472;52.328;13.070;2023-02-01T16:43:21;2.70;99.90